Time;durP1;ratioP1;P1;durP2;ratioP2;P2;SDS_P1;SDS_P2;PMS_P1;PMS_P2;Temp;Humidity;BMP_temperature;BMP_pressure;BME280_temperature;BME280_humidity;BME280_pressure;Samples;Min_cycle;Max_cycle;Signal;HPM_P1;HPM_P2
2021/09/05 00:02:14;;;;;;;14.43;7.20;;;9.20;99.90;;;;;;4994967;28;20025;-78
2021/09/05 00:04:39;;;;;;;14.38;6.82;;;9.20;99.90;;;;;;4994576;28;20030;-78
2021/09/05 00:07:05;;;;;;;14.23;7.03;;;9.10;99.90;;;;;;4994797;28;20022;-78
2021/09/05 00:09:31;;;;;;;15.95;7.20;;;9.20;99.90;;;;;;4994379;28;20044;-78
2021/09/05 00:11:57;;;;;;;17.92;7.78;;;9.10;99.90;;;;;;4994841;28;20029;-78
2021/09/05 00:14:22;;;;;;;11.20;6.95;;;9.10;99.90;;;;;;4994522;28;20029;-78
2021/09/05 00:16:48;;;;;;;12.00;6.82;;;9.00;99.90;;;;;;4994512;28;20116;-78
2021/09/05 00:19:13;;;;;;;15.27;6.72;;;9.00;99.90;;;;;;5011942;28;20029;-79
2021/09/05 00:21:39;;;;;;;12.43;6.93;;;9.00;99.90;;;;;;4994614;28;20056;-78
2021/09/05 00:24:05;;;;;;;12.80;7.30;;;8.90;99.90;;;;;;4994317;28;20034;-78
2021/09/05 00:26:32;;;;;;;14.35;6.82;;;9.00;99.90;;;;;;5012134;28;20769;-79
2021/09/05 00:28:58;;;;;;;14.02;7.60;;;9.00;99.90;;;;;;5011838;28;20030;-78
2021/09/05 00:31:24;;;;;;;14.52;7.07;;;9.00;99.90;;;;;;5012126;28;20052;-78
2021/09/05 00:33:49;;;;;;;14.07;7.38;;;9.00;99.90;;;;;;4994250;28;20431;-78
2021/09/05 00:36:15;;;;;;;14.45;6.45;;;8.90;99.90;;;;;;5012030;28;20040;-78
2021/09/05 00:38:41;;;;;;;14.32;7.75;;;8.90;99.90;;;;;;5011330;28;20561;-78
2021/09/05 00:41:06;;;;;;;12.73;7.00;;;8.90;99.90;;;;;;5013927;28;20022;-79
2021/09/05 00:43:32;;;;;;;10.63;6.53;;;8.80;99.90;;;;;;5000968;28;20029;-78
2021/09/05 00:45:57;;;;;;;12.02;6.38;;;8.80;99.90;;;;;;5018321;28;20455;-78
2021/09/05 00:48:23;;;;;;;14.55;7.00;;;8.80;99.90;;;;;;5018597;28;20421;-78
2021/09/05 00:50:49;;;;;;;18.55;6.90;;;8.80;99.90;;;;;;5000037;28;20061;-78
2021/09/05 00:53:14;;;;;;;17.08;7.45;;;8.70;99.90;;;;;;5018344;28;20068;-78
2021/09/05 00:55:40;;;;;;;14.80;7.53;;;8.70;99.90;;;;;;5018171;28;20054;-78
2021/09/05 00:58:07;;;;;;;14.02;6.75;;;8.70;99.90;;;;;;5000738;28;20076;-78
2021/09/05 01:00:33;;;;;;;11.10;7.10;;;8.70;99.90;;;;;;5018164;28;20056;-78
2021/09/05 01:02:59;;;;;;;15.40;7.05;;;8.70;99.90;;;;;;5018419;28;20077;-79
2021/09/05 01:05:25;;;;;;;14.43;6.90;;;8.60;99.90;;;;;;5016717;28;20489;-78
2021/09/05 01:07:50;;;;;;;16.13;6.40;;;8.60;99.90;;;;;;5018227;28;20101;-78
2021/09/05 01:10:16;;;;;;;16.48;8.55;;;8.50;99.90;;;;;;5016819;28;20022;-78
2021/09/05 01:12:42;;;;;;;12.77;7.55;;;8.50;99.90;;;;;;5016941;28;20030;-78
2021/09/05 01:15:08;;;;;;;14.23;7.10;;;8.50;99.90;;;;;;5017932;28;20508;-79
2021/09/05 01:17:39;;;;;;;11.90;6.63;;;8.40;99.90;;;;;;5018068;28;20037;-79
2021/09/05 01:20:07;;;;;;;11.40;7.07;;;8.40;99.90;;;;;;5018297;28;20090;-78
2021/09/05 01:22:33;;;;;;;15.20;6.82;;;8.40;99.90;;;;;;5000150;28;20026;-78
2021/09/05 01:24:58;;;;;;;14.15;6.60;;;8.30;99.90;;;;;;5017970;28;20028;-78
2021/09/05 01:27:24;;;;;;;13.35;6.70;;;8.40;99.90;;;;;;5018063;28;20101;-77
2021/09/05 01:29:50;;;;;;;13.45;6.30;;;8.30;99.90;;;;;;5018257;28;20033;-78
2021/09/05 01:32:15;;;;;;;16.02;7.15;;;8.30;99.90;;;;;;5017981;28;20402;-78
2021/09/05 01:34:41;;;;;;;16.65;7.47;;;8.40;99.90;;;;;;5000263;28;20033;-78
2021/09/05 01:37:07;;;;;;;13.10;7.35;;;8.30;99.90;;;;;;5017691;28;20452;-78
2021/09/05 01:39:32;;;;;;;12.95;6.10;;;8.40;99.90;;;;;;5018113;28;20026;-78
2021/09/05 01:41:58;;;;;;;14.15;6.57;;;8.30;99.90;;;;;;5017805;28;20026;-78
2021/09/05 01:44:24;;;;;;;11.52;5.95;;;8.20;99.90;;;;;;5017787;28;20029;-78
2021/09/05 01:46:50;;;;;;;14.05;6.43;;;8.20;99.90;;;;;;5000290;28;20068;-77
2021/09/05 01:49:16;;;;;;;13.32;6.72;;;8.20;99.90;;;;;;5017631;28;20470;-78
2021/09/05 01:51:42;;;;;;;13.93;6.88;;;8.10;99.90;;;;;;5000143;28;20161;-78
2021/09/05 01:54:08;;;;;;;13.63;7.22;;;8.10;99.90;;;;;;5013788;28;20144;-78
2021/09/05 01:56:34;;;;;;;10.80;6.03;;;8.10;99.90;;;;;;5014575;28;20052;-78
2021/09/05 01:59:01;;;;;;;10.75;6.15;;;8.00;99.90;;;;;;5014267;28;20036;-79
2021/09/05 02:01:28;;;;;;;16.35;6.65;;;7.90;99.90;;;;;;5013463;28;20107;-78
2021/09/05 02:03:54;;;;;;;8.10;5.75;;;7.90;99.90;;;;;;4996764;28;20029;-79
2021/09/05 02:06:20;;;;;;;11.43;5.57;;;7.90;99.90;;;;;;5014404;28;20110;-79
2021/09/05 02:08:46;;;;;;;9.68;5.40;;;7.90;99.90;;;;;;5014290;28;20116;-78
2021/09/05 02:11:12;;;;;;;12.10;5.82;;;7.90;99.90;;;;;;4996913;28;20104;-78
2021/09/05 02:13:37;;;;;;;11.63;5.88;;;7.90;99.90;;;;;;4996781;28;20026;-78
2021/09/05 02:16:03;;;;;;;8.48;5.65;;;7.90;99.90;;;;;;4996704;28;20021;-78
2021/09/05 02:18:29;;;;;;;11.00;5.30;;;7.90;99.90;;;;;;5013937;28;20490;-78
2021/09/05 02:20:55;;;;;;;16.17;6.35;;;8.00;99.90;;;;;;5014289;28;20078;-78
2021/09/05 02:23:21;;;;;;;15.43;5.78;;;7.90;99.90;;;;;;4996842;28;20117;-78
2021/09/05 02:25:46;;;;;;;13.82;6.25;;;7.90;99.90;;;;;;5012831;28;20022;-78
2021/09/05 02:28:12;;;;;;;15.60;6.82;;;7.90;99.90;;;;;;4997814;28;20022;-78
2021/09/05 02:30:37;;;;;;;15.23;7.10;;;7.90;99.90;;;;;;5014226;28;20030;-78
2021/09/05 02:33:04;;;;;;;13.95;6.28;;;7.90;99.90;;;;;;5014441;28;20026;-78
2021/09/05 02:35:30;;;;;;;11.82;6.35;;;7.90;99.90;;;;;;4995988;28;20072;-78
2021/09/05 02:37:55;;;;;;;18.98;6.70;;;7.90;99.90;;;;;;5012758;28;20053;-79
2021/09/05 02:40:21;;;;;;;12.43;6.07;;;8.00;99.90;;;;;;4996153;28;20449;-79
2021/09/05 02:42:47;;;;;;;9.85;6.00;;;8.00;99.90;;;;;;5014002;28;20025;-78
2021/09/05 02:45:12;;;;;;;11.50;6.80;;;8.00;99.90;;;;;;4996043;28;20390;-78
2021/09/05 02:47:38;;;;;;;11.70;6.43;;;8.00;99.90;;;;;;5013805;28;20490;-78
2021/09/05 02:50:05;;;;;;;10.27;6.22;;;8.00;99.90;;;;;;5013209;28;20061;-78
2021/09/05 02:52:31;;;;;;;12.63;6.10;;;7.90;99.90;;;;;;4996136;28;20497;-78
2021/09/05 02:54:56;;;;;;;13.18;6.13;;;7.80;99.90;;;;;;5013569;28;20062;-78
2021/09/05 02:57:22;;;;;;;12.27;5.35;;;7.80;99.90;;;;;;5013513;28;20122;-78
2021/09/05 02:59:47;;;;;;;10.85;5.80;;;7.80;99.90;;;;;;4995890;28;20394;-78
2021/09/05 03:02:13;;;;;;;12.27;6.47;;;7.70;99.90;;;;;;5013591;28;20026;-78
2021/09/05 03:04:38;;;;;;;10.70;6.10;;;7.60;99.90;;;;;;4995620;28;20025;-78
2021/09/05 03:07:04;;;;;;;11.00;5.53;;;7.60;99.90;;;;;;4995936;28;20021;-77
2021/09/05 03:09:29;;;;;;;11.50;6.03;;;7.60;99.90;;;;;;4995483;28;20030;-78
2021/09/05 03:11:55;;;;;;;11.27;5.53;;;7.50;99.90;;;;;;4995585;28;20041;-79
2021/09/05 03:14:20;;;;;;;9.07;5.65;;;7.60;99.90;;;;;;5013305;28;20061;-77
2021/09/05 03:16:46;;;;;;;9.68;5.40;;;7.50;99.90;;;;;;4995757;28;20030;-78
2021/09/05 03:19:11;;;;;;;16.02;5.43;;;7.50;99.90;;;;;;4995757;28;20112;-78
2021/09/05 03:21:38;;;;;;;15.10;4.88;;;7.50;99.90;;;;;;5012554;28;20030;-78
2021/09/05 03:24:04;;;;;;;11.38;4.85;;;7.40;99.90;;;;;;5012983;28;20014;-77
2021/09/05 03:26:31;;;;;;;9.07;5.03;;;7.40;99.90;;;;;;5013057;28;20632;-78
2021/09/05 03:28:56;;;;;;;7.65;4.55;;;7.40;99.90;;;;;;4995477;28;20040;-77
2021/09/05 03:31:22;;;;;;;11.85;5.50;;;7.30;99.90;;;;;;5012778;28;20559;-78
2021/09/05 03:33:47;;;;;;;8.75;4.45;;;7.30;99.90;;;;;;5012799;28;20033;-78
2021/09/05 03:36:13;;;;;;;9.55;4.97;;;7.30;99.90;;;;;;5012893;28;20044;-78
2021/09/05 03:38:38;;;;;;;7.85;5.05;;;7.30;99.90;;;;;;5011592;28;20030;-78
2021/09/05 03:41:04;;;;;;;7.47;4.82;;;7.30;99.90;;;;;;4995250;28;20387;-78
2021/09/05 03:43:30;;;;;;;8.68;4.60;;;7.30;99.90;;;;;;4995043;28;20109;-78
2021/09/05 03:45:55;;;;;;;10.77;6.10;;;7.30;99.90;;;;;;5012485;28;20022;-78
2021/09/05 03:48:21;;;;;;;7.85;5.15;;;7.40;99.90;;;;;;5012793;28;20101;-78
2021/09/05 03:50:46;;;;;;;10.95;4.88;;;7.40;99.90;;;;;;5012749;28;20669;-78
2021/09/05 03:53:12;;;;;;;13.05;5.50;;;7.40;99.90;;;;;;5012309;28;20026;-78
2021/09/05 03:55:37;;;;;;;10.45;5.20;;;7.40;99.90;;;;;;4994781;28;20026;-78
2021/09/05 03:58:04;;;;;;;8.25;4.53;;;7.30;99.90;;;;;;4994961;28;20026;-78
2021/09/05 04:00:29;;;;;;;11.05;4.93;;;7.40;99.90;;;;;;5012553;28;20102;-78
2021/09/05 04:02:55;;;;;;;8.35;4.50;;;7.30;99.90;;;;;;4994689;28;20050;-78
2021/09/05 04:05:20;;;;;;;10.00;6.00;;;7.30;99.90;;;;;;5012176;28;20034;-79
2021/09/05 04:10:31;;;;;;;12.07;5.72;;;7.30;99.90;;;;;;5012471;28;20076;-79
2021/09/05 04:12:57;;;;;;;10.30;5.88;;;7.30;99.90;;;;;;5010842;28;20034;-78
2021/09/05 04:15:23;;;;;;;9.98;5.38;;;7.20;99.90;;;;;;5010443;28;20091;-78
2021/09/05 04:17:49;;;;;;;12.20;5.78;;;7.30;99.90;;;;;;4994364;28;20029;-78
2021/09/05 04:20:15;;;;;;;11.55;5.50;;;7.20;99.90;;;;;;4994608;28;20041;-79
2021/09/05 04:22:41;;;;;;;9.80;6.13;;;7.20;99.90;;;;;;5011938;28;20397;-78
2021/09/05 04:25:07;;;;;;;14.10;6.13;;;7.10;99.90;;;;;;5011960;28;20101;-78
2021/09/05 04:27:33;;;;;;;11.35;5.72;;;7.10;99.90;;;;;;5012182;28;20041;-78
2021/09/05 04:29:58;;;;;;;10.55;6.07;;;7.10;99.90;;;;;;4994412;28;20026;-78
2021/09/05 04:32:24;;;;;;;10.15;6.00;;;7.20;99.90;;;;;;4994585;28;20149;-79
2021/09/05 04:34:50;;;;;;;9.00;6.28;;;7.10;99.90;;;;;;5010367;28;20030;-78
2021/09/05 04:37:17;;;;;;;13.15;5.68;;;7.10;99.90;;;;;;4994226;28;20109;-78
2021/09/05 04:39:47;;;;;;;12.90;5.57;;;7.10;99.90;;;;;;4994577;28;20129;-78
2021/09/05 04:42:13;;;;;;;10.23;5.53;;;7.10;99.90;;;;;;4994446;28;20026;-78
2021/09/05 04:44:39;;;;;;;14.00;5.80;;;7.10;99.90;;;;;;5011538;28;20034;-78
2021/09/05 04:47:05;;;;;;;12.88;5.28;;;7.10;99.90;;;;;;4994315;28;20038;-79
2021/09/05 04:49:31;;;;;;;11.15;5.65;;;7.10;99.90;;;;;;4994281;28;20053;-78
2021/09/05 04:51:57;;;;;;;17.20;6.75;;;7.10;99.90;;;;;;5010701;28;20037;-78
2021/09/05 04:54:22;;;;;;;16.77;6.38;;;7.10;99.90;;;;;;5011499;28;20040;-78
2021/09/05 04:56:48;;;;;;;13.70;6.50;;;7.10;99.90;;;;;;4994272;28;20026;-78
2021/09/05 04:59:13;;;;;;;15.15;5.68;;;7.20;99.90;;;;;;5011887;28;20077;-77
2021/09/05 05:01:39;;;;;;;11.68;5.25;;;7.20;99.90;;;;;;4994521;28;20026;-78
2021/09/05 05:04:04;;;;;;;11.48;5.90;;;7.20;99.90;;;;;;5010076;28;20077;-78
2021/09/05 05:06:30;;;;;;;10.90;5.97;;;7.30;99.90;;;;;;5011755;28;20026;-78
2021/09/05 05:08:56;;;;;;;11.02;5.47;;;7.30;99.90;;;;;;5011837;28;20398;-78
2021/09/05 05:11:22;;;;;;;17.08;8.43;;;7.30;99.90;;;;;;5010574;28;20026;-78
2021/09/05 05:13:47;;;;;;;15.30;6.05;;;7.30;99.90;;;;;;5011496;28;20032;-78
2021/09/05 05:16:13;;;;;;;19.52;6.95;;;7.40;99.90;;;;;;4993886;28;20026;-78
2021/09/05 05:18:39;;;;;;;12.55;5.95;;;7.40;99.90;;;;;;5011605;28;20398;-78
2021/09/05 05:21:04;;;;;;;10.10;5.60;;;7.50;99.90;;;;;;5011677;28;20033;-78
2021/09/05 05:23:30;;;;;;;10.57;5.53;;;7.60;99.90;;;;;;5010623;28;20029;-78
2021/09/05 05:25:56;;;;;;;18.83;6.30;;;7.70;99.90;;;;;;5011119;28;20033;-78
2021/09/05 05:28:22;;;;;;;13.48;6.18;;;7.70;99.90;;;;;;4995085;28;20030;-79
2021/09/05 05:30:47;;;;;;;15.57;6.18;;;7.80;99.90;;;;;;5015312;28;20030;-78
2021/09/05 05:33:13;;;;;;;13.25;5.07;;;7.90;99.90;;;;;;5015204;28;20030;-79
2021/09/05 05:35:38;;;;;;;11.80;5.75;;;8.00;99.90;;;;;;5013327;28;20036;-78
2021/09/05 05:38:04;;;;;;;18.27;4.90;;;8.10;99.90;;;;;;5015126;28;20041;-78
2021/09/05 05:40:33;;;;;;;9.23;4.93;;;8.20;99.90;;;;;;4997513;28;20029;-78
2021/09/05 05:43:00;;;;;;;15.70;5.70;;;8.30;99.90;;;;;;5013820;28;20024;-78
2021/09/05 05:45:25;;;;;;;11.10;5.22;;;8.40;99.90;;;;;;5014539;28;20471;-78
2021/09/05 05:47:51;;;;;;;11.85;5.18;;;8.50;99.90;;;;;;4997353;28;20037;-78
2021/09/05 05:50:17;;;;;;;8.13;5.13;;;8.60;99.90;;;;;;5015121;28;20022;-78
2021/09/05 05:52:42;;;;;;;9.88;5.55;;;8.80;99.90;;;;;;5013810;28;20117;-78
2021/09/05 05:55:09;;;;;;;9.30;5.43;;;8.90;99.90;;;;;;5015230;28;20069;-78
2021/09/05 05:57:35;;;;;;;10.40;5.57;;;9.10;99.90;;;;;;4997515;28;20034;-78
2021/09/05 06:00:00;;;;;;;10.00;5.60;;;9.30;99.90;;;;;;4997258;28;20029;-79
2021/09/05 06:02:26;;;;;;;16.40;6.18;;;9.60;99.90;;;;;;4985177;28;20116;-78
2021/09/05 06:04:51;;;;;;;8.80;4.45;;;9.70;99.90;;;;;;5002872;28;20021;-78
2021/09/05 06:07:17;;;;;;;9.50;5.10;;;9.90;99.90;;;;;;4994647;28;20030;-78
2021/09/05 06:09:43;;;;;;;12.40;5.10;;;10.10;99.90;;;;;;5010361;28;20037;-78
2021/09/05 06:12:09;;;;;;;10.18;5.22;;;10.30;99.90;;;;;;5012315;28;20022;-79
2021/09/05 06:14:36;;;;;;;12.63;4.97;;;10.40;99.90;;;;;;5009802;28;20030;-79
2021/09/05 06:17:02;;;;;;;10.93;4.57;;;10.60;99.90;;;;;;5007065;28;20029;-78
2021/09/05 06:19:27;;;;;;;9.93;5.15;;;10.80;99.90;;;;;;5010114;28;20032;-78
2021/09/05 06:21:53;;;;;;;15.95;5.68;;;11.00;99.90;;;;;;5023487;28;20053;-78
2021/09/05 06:24:19;;;;;;;17.40;5.28;;;11.10;99.90;;;;;;5009615;28;20474;-78
2021/09/05 06:26:44;;;;;;;9.13;4.80;;;11.30;99.90;;;;;;5009732;28;20030;-79
2021/09/05 06:29:10;;;;;;;13.45;4.97;;;11.50;99.90;;;;;;5010131;28;20080;-78
2021/09/05 06:31:35;;;;;;;10.30;4.63;;;11.70;99.90;;;;;;5009703;28;20022;-78
2021/09/05 06:34:01;;;;;;;18.38;6.60;;;11.80;99.90;;;;;;5009422;28;20518;-79
2021/09/05 06:36:26;;;;;;;7.88;4.15;;;12.00;99.90;;;;;;5001153;28;20129;-79
2021/09/05 06:38:52;;;;;;;7.20;4.25;;;12.10;99.90;;;;;;5008927;28;20038;-79
2021/09/05 06:41:17;;;;;;;9.32;4.45;;;12.30;99.90;;;;;;5009749;28;20042;-79
2021/09/05 06:43:43;;;;;;;9.40;4.60;;;12.50;99.90;;;;;;5012025;28;20022;-80
2021/09/05 06:46:09;;;;;;;9.80;4.47;;;12.60;99.90;;;;;;5010028;28;20030;-81
2021/09/05 06:48:34;;;;;;;12.75;3.75;;;12.80;99.90;;;;;;5000235;28;20116;-80
2021/09/05 06:51:00;;;;;;;11.50;4.28;;;12.90;99.90;;;;;;5009896;28;20096;-81
2021/09/05 06:53:25;;;;;;;9.93;3.72;;;13.10;99.90;;;;;;5008421;28;20034;-80
2021/09/05 06:55:51;;;;;;;16.33;4.00;;;13.20;99.90;;;;;;5009508;28;20034;-81
2021/09/05 06:58:17;;;;;;;8.50;3.70;;;13.40;99.90;;;;;;4991556;28;20471;-83
2021/09/05 07:00:43;;;;;;;10.23;3.03;;;13.50;99.90;;;;;;5007154;28;20075;-84
2021/09/05 07:03:08;;;;;;;12.65;3.13;;;13.60;99.90;;;;;;4993605;28;20079;-82
2021/09/05 07:05:34;;;;;;;5.75;3.05;;;13.80;99.90;;;;;;5004697;28;20027;-82
2021/09/05 07:08:00;;;;;;;15.20;3.20;;;14.00;99.90;;;;;;4995424;28;20033;-82
2021/09/05 07:10:25;;;;;;;4.47;2.50;;;14.20;99.90;;;;;;5012295;28;20065;-84
2021/09/05 07:12:51;;;;;;;11.48;2.72;;;14.30;99.90;;;;;;4995917;28;20060;-79
2021/09/05 07:15:17;;;;;;;5.28;2.55;;;14.40;99.90;;;;;;4988834;28;20022;-81
2021/09/05 07:17:42;;;;;;;4.38;2.67;;;14.50;99.90;;;;;;4999174;28;20466;-81
2021/09/05 07:20:08;;;;;;;11.43;4.22;;;14.70;99.90;;;;;;5008304;28;20080;-81
2021/09/05 07:22:34;;;;;;;13.68;2.20;;;14.80;99.90;;;;;;5008681;28;20545;-81
2021/09/05 07:25:02;;;;;;;4.95;2.20;;;15.00;99.90;;;;;;5016342;28;20061;-80
2021/09/05 07:27:28;;;;;;;6.28;2.30;;;15.20;99.90;;;;;;5018725;28;20033;-81
2021/09/05 07:29:53;;;;;;;8.18;2.63;;;15.30;99.90;;;;;;5008327;28;20029;-82
2021/09/05 07:32:19;;;;;;;16.20;2.67;;;15.40;99.90;;;;;;5008757;28;20380;-82
2021/09/05 07:34:46;;;;;;;9.07;2.53;;;15.60;99.90;;;;;;5021050;28;20482;-82
2021/09/05 07:37:11;;;;;;;8.85;2.33;;;16.00;99.90;;;;;;5008611;28;20096;-82
2021/09/05 07:39:37;;;;;;;6.05;2.50;;;15.90;99.90;;;;;;4995952;28;20583;-82
2021/09/05 07:42:03;;;;;;;8.70;1.77;;;16.00;99.90;;;;;;4994677;28;20022;-82
2021/09/05 07:44:29;;;;;;;4.93;2.38;;;16.10;99.90;;;;;;4994880;28;20064;-80
2021/09/05 07:46:55;;;;;;;6.10;2.08;;;16.30;99.90;;;;;;4995030;28;20026;-81
2021/09/05 07:49:20;;;;;;;3.70;2.17;;;16.50;99.90;;;;;;5011495;28;20032;-82
2021/09/05 07:51:46;;;;;;;3.28;2.05;;;16.60;99.90;;;;;;5011667;28;20053;-80
2021/09/05 07:54:11;;;;;;;5.07;2.13;;;16.70;99.90;;;;;;5012284;28;20022;-80
2021/09/05 07:56:37;;;;;;;5.25;2.90;;;16.80;99.90;;;;;;5012601;28;20022;-79
2021/09/05 07:59:02;;;;;;;5.60;2.45;;;16.90;99.90;;;;;;5012267;28;20128;-80
2021/09/05 08:01:28;;;;;;;4.88;2.50;;;17.10;99.90;;;;;;4994763;28;20022;-80
2021/09/05 08:03:54;;;;;;;5.40;2.65;;;17.30;99.90;;;;;;5012234;28;20471;-79
2021/09/05 08:06:19;;;;;;;5.15;2.05;;;17.40;99.90;;;;;;4994695;28;20018;-79
2021/09/05 08:08:45;;;;;;;3.33;2.00;;;17.50;99.90;;;;;;4994883;28;20189;-79
2021/09/05 08:11:11;;;;;;;3.72;2.05;;;17.70;99.90;;;;;;5010880;28;20028;-80
2021/09/05 08:13:36;;;;;;;10.38;2.70;;;17.80;99.90;;;;;;4994369;28;20036;-78
2021/09/05 08:16:03;;;;;;;6.32;2.20;;;18.10;99.90;;;;;;5012032;28;20061;-78
2021/09/05 08:18:35;;;;;;;5.07;2.25;;;18.10;99.90;;;;;;5012191;28;20025;-78
2021/09/05 08:21:01;;;;;;;7.50;2.80;;;18.10;99.90;;;;;;5012263;28;20509;-79
2021/09/05 08:23:27;;;;;;;3.80;2.13;;;18.30;99.90;;;;;;5011990;28;20482;-80
2021/09/05 08:25:53;;;;;;;7.93;2.05;;;18.50;99.90;;;;;;5011849;28;20036;-79
2021/09/05 08:28:19;;;;;;;4.18;2.10;;;18.60;99.90;;;;;;4994408;28;20037;-80
2021/09/05 08:30:44;;;;;;;4.38;2.00;;;18.80;99.90;;;;;;4994572;28;20065;-81
2021/09/05 08:33:10;;;;;;;8.23;2.33;;;19.00;99.90;;;;;;4994456;28;20049;-79
2021/09/05 08:35:37;;;;;;;10.48;2.55;;;19.00;99.90;;;;;;4993965;28;20041;-80
2021/09/05 08:38:03;;;;;;;7.45;2.60;;;18.60;99.90;;;;;;5012043;28;20029;-79
2021/09/05 08:40:29;;;;;;;6.45;2.55;;;17.90;99.90;;;;;;4994617;28;20022;-78
2021/09/05 08:42:54;;;;;;;7.25;2.60;;;17.90;99.90;;;;;;5011946;28;20030;-79
2021/09/05 08:45:20;;;;;;;6.82;2.53;;;17.80;99.90;;;;;;5011445;28;20040;-79
2021/09/05 08:47:46;;;;;;;6.60;3.33;;;17.80;99.90;;;;;;5011879;28;20104;-78
2021/09/05 08:50:12;;;;;;;3.95;2.42;;;17.60;99.90;;;;;;5011970;28;20030;-79
2021/09/05 08:52:38;;;;;;;10.60;2.63;;;17.40;99.90;;;;;;5011916;28;20021;-78
2021/09/05 08:55:07;;;;;;;7.38;3.67;;;17.20;99.90;;;;;;5011274;28;20402;-78
2021/09/05 08:57:34;;;;;;;6.28;2.97;;;17.00;99.90;;;;;;4994127;28;20033;-78
2021/09/05 08:59:59;;;;;;;4.75;2.22;;;17.10;99.90;;;;;;5011846;28;20018;-79
2021/09/05 09:02:25;;;;;;;7.40;2.65;;;17.10;99.90;;;;;;5013036;28;20625;-78
2021/09/05 09:04:53;;;;;;;9.60;2.78;;;17.20;99.90;;;;;;5015311;28;20030;-78
2021/09/05 09:07:19;;;;;;;5.90;2.67;;;17.80;99.90;;;;;;5015629;28;20034;-78
2021/09/05 09:10:03;;;;;;;10.70;2.42;;;18.30;99.90;;;;;;5015530;28;20026;-78
2021/09/05 09:12:39;;;;;;;8.70;3.65;;;18.50;99.90;;;;;;4998098;28;20107;-78
2021/09/05 09:15:25;;;;;;;9.93;3.58;;;19.10;99.90;;;;;;5015152;28;20140;-78
2021/09/05 09:17:59;;;;;;;6.85;2.50;;;19.70;99.90;;;;;;5015407;28;20038;-78
2021/09/05 09:20:42;;;;;;;6.32;2.50;;;19.90;99.90;;;;;;4997741;28;20026;-78
2021/09/05 09:23:09;;;;;;;4.80;2.42;;;19.80;99.90;;;;;;5015399;28;20382;-78
2021/09/05 09:25:35;;;;;;;7.65;2.22;;;19.30;99.90;;;;;;5014763;28;20021;-78
2021/09/05 09:28:00;;;;;;;7.22;3.20;;;19.00;99.90;;;;;;5015179;28;20555;-78
2021/09/05 09:30:36;;;;;;;12.45;2.60;;;18.90;99.90;;;;;;4997704;28;20026;-78
2021/09/05 09:33:01;;;;;;;8.13;2.63;;;18.70;99.90;;;;;;4997701;28;20038;-78
2021/09/05 09:35:47;;;;;;;4.57;2.65;;;18.50;99.90;;;;;;5014630;28;21803;-82
2021/09/05 09:38:15;;;;;;;5.90;2.90;;;18.40;99.90;;;;;;4978081;28;20034;-80
2021/09/05 09:40:40;;;;;;;7.70;2.92;;;18.70;99.90;;;;;;4970711;28;20108;-79
2021/09/05 09:43:17;;;;;;;6.45;2.40;;;19.20;99.90;;;;;;5007250;28;20050;-78
2021/09/05 09:45:42;;;;;;;5.00;2.78;;;19.60;99.90;;;;;;5017123;28;20026;-78
2021/09/05 09:48:08;;;;;;;5.57;2.42;;;19.70;99.90;;;;;;4997327;28;20033;-77
2021/09/05 09:50:41;;;;;;;4.80;2.40;;;19.80;99.90;;;;;;5010429;28;20116;-79
2021/09/05 09:53:07;;;;;;;8.35;2.58;;;20.20;99.90;;;;;;4999586;28;20034;-80
2021/09/05 09:55:37;;;;;;;18.70;2.75;;;20.50;99.90;;;;;;5014403;28;20034;-80
2021/09/05 09:58:03;;;;;;;10.82;2.67;;;20.50;99.90;;;;;;5000191;28;20048;-80
2021/09/05 10:00:30;;;;;;;9.95;3.30;;;19.80;99.90;;;;;;5013462;28;20077;-80
2021/09/05 10:02:57;;;;;;;6.30;2.78;;;19.60;99.90;;;;;;5014771;28;20018;-79
2021/09/05 10:05:23;;;;;;;12.60;3.00;;;19.50;99.90;;;;;;5014371;28;20033;-80
2021/09/05 10:07:51;;;;;;;7.85;2.38;;;20.00;99.90;;;;;;5014423;28;20026;-79
2021/09/05 10:10:18;;;;;;;5.32;3.05;;;20.50;99.90;;;;;;4996721;28;20541;-79
2021/09/05 10:12:44;;;;;;;6.72;3.13;;;21.10;99.90;;;;;;4996940;28;20076;-79
2021/09/05 10:15:11;;;;;;;13.27;3.08;;;21.00;99.90;;;;;;4995972;28;20025;-80
2021/09/05 10:17:38;;;;;;;10.00;2.90;;;21.00;99.90;;;;;;4996991;28;20418;-79
2021/09/05 10:20:05;;;;;;;5.40;2.80;;;20.60;99.90;;;;;;4996661;28;20026;-80
2021/09/05 10:22:31;;;;;;;3.97;2.60;;;20.50;99.90;;;;;;4996749;28;20025;-80
2021/09/05 10:25:00;;;;;;;6.93;3.03;;;20.10;99.90;;;;;;5012837;28;20025;-80
2021/09/05 10:27:31;;;;;;;11.98;2.63;;;20.20;99.90;;;;;;5014468;28;20557;-79
2021/09/05 10:30:09;;;;;;;3.88;2.38;;;20.70;99.90;;;;;;4996332;28;20033;-79
2021/09/05 10:32:55;;;;;;;11.43;3.45;;;20.80;99.90;;;;;;5014248;28;20550;-79
2021/09/05 10:35:35;;;;;;;6.63;2.90;;;21.00;99.90;;;;;;4995764;28;20033;-79
2021/09/05 10:38:21;;;;;;;6.22;3.08;;;21.50;99.90;;;;;;4996342;28;20029;-81
2021/09/05 10:40:55;;;;;;;8.50;3.53;;;21.90;99.90;;;;;;5013580;28;20061;-81
2021/09/05 10:43:23;;;;;;;7.53;3.03;;;21.30;99.90;;;;;;5013983;28;20634;-80
2021/09/05 10:45:55;;;;;;;9.77;2.95;;;20.60;99.90;;;;;;5013479;28;20498;-80
2021/09/05 10:48:34;;;;;;;5.05;2.83;;;21.10;99.90;;;;;;5014104;28;20048;-79
2021/09/05 10:51:09;;;;;;;9.30;3.22;;;21.00;99.90;;;;;;5013544;28;20087;-79
2021/09/05 10:53:37;;;;;;;7.88;3.13;;;21.00;99.90;;;;;;4996189;28;20037;-80
2021/09/05 10:56:08;;;;;;;6.03;3.00;;;21.60;99.90;;;;;;5013462;28;20036;-80
2021/09/05 10:58:58;;;;;;;10.20;2.88;;;21.80;99.90;;;;;;5012331;28;20025;-80
2021/09/05 11:01:57;;;;;;;10.65;3.63;;;21.30;99.90;;;;;;4988774;28;20441;-79
2021/09/05 11:04:25;;;;;;;5.47;2.70;;;21.10;99.90;;;;;;4995022;28;20030;-78
2021/09/05 11:07:04;;;;;;;11.50;3.22;;;20.90;99.90;;;;;;4995856;28;20036;-81
2021/09/05 11:09:29;;;;;;;5.40;2.67;;;21.20;99.90;;;;;;4995952;28;20030;-80
2021/09/05 11:12:11;;;;;;;6.97;3.28;;;21.10;99.90;;;;;;4995585;28;20053;-79
2021/09/05 11:14:36;;;;;;;8.45;2.60;;;21.00;99.90;;;;;;4995620;28;20025;-80
2021/09/05 11:17:08;;;;;;;6.43;2.85;;;20.60;99.90;;;;;;5013079;28;20022;-80
2021/09/05 11:19:57;;;;;;;9.40;2.67;;;20.30;99.90;;;;;;5013133;28;20092;-79
2021/09/05 11:22:22;;;;;;;8.52;3.33;;;20.10;99.90;;;;;;5012992;28;20026;-79
2021/09/05 11:25:11;;;;;;;10.98;3.50;;;20.10;99.90;;;;;;4995381;28;20368;-78
2021/09/05 11:27:46;;;;;;;9.73;3.78;;;20.60;99.90;;;;;;5013069;28;20521;-80
2021/09/05 11:30:12;;;;;;;11.73;3.85;;;20.80;99.90;;;;;;4995523;28;20154;-80
2021/09/05 11:32:39;;;;;;;8.77;3.15;;;20.90;99.90;;;;;;5011577;28;20116;-81
2021/09/05 11:35:05;;;;;;;6.78;3.40;;;20.70;99.90;;;;;;5012387;28;20041;-80
2021/09/05 11:37:33;;;;;;;8.73;2.47;;;20.30;99.90;;;;;;5012839;28;20038;-79
2021/09/05 11:40:14;;;;;;;7.13;2.78;;;20.00;99.90;;;;;;4995158;28;20026;-80
2021/09/05 11:42:44;;;;;;;6.60;2.97;;;20.00;99.90;;;;;;4995108;28;20490;-80
2021/09/05 11:45:11;;;;;;;4.78;2.45;;;19.80;99.90;;;;;;5012599;28;20565;-80
2021/09/05 11:47:38;;;;;;;9.60;3.22;;;19.70;99.90;;;;;;4995486;28;20552;-81
2021/09/05 11:50:05;;;;;;;7.70;2.75;;;19.50;99.90;;;;;;5012595;28;20050;-79
2021/09/05 11:52:39;;;;;;;6.40;3.40;;;19.60;99.90;;;;;;4994740;28;20032;-80
2021/09/05 11:55:13;;;;;;;8.48;2.65;;;19.70;99.90;;;;;;4994963;28;20544;-80
2021/09/05 11:58:02;;;;;;;7.00;3.13;;;19.50;99.90;;;;;;4995085;28;20117;-78
2021/09/05 12:00:31;;;;;;;7.43;2.50;;;19.40;99.90;;;;;;5012519;28;20022;-80
2021/09/05 12:02:59;;;;;;;7.95;2.90;;;19.40;99.90;;;;;;4994502;28;20030;-80
2021/09/05 12:05:26;;;;;;;7.80;2.88;;;19.30;99.90;;;;;;5012195;28;20026;-79
2021/09/05 12:07:52;;;;;;;6.13;2.95;;;19.40;99.90;;;;;;5012507;28;20137;-80
2021/09/05 12:10:20;;;;;;;5.72;3.00;;;19.70;99.90;;;;;;5012483;28;20045;-79
2021/09/05 12:13:12;;;;;;;16.23;3.78;;;20.00;99.90;;;;;;5012399;28;20022;-80
2021/09/05 12:15:45;;;;;;;5.72;2.97;;;20.00;99.90;;;;;;5012129;28;20096;-81
2021/09/05 12:18:24;;;;;;;6.30;3.45;;;20.10;99.90;;;;;;5012277;28;20033;-78
2021/09/05 12:20:51;;;;;;;24.70;3.67;;;20.70;99.90;;;;;;4994714;28;20026;-79
2021/09/05 12:23:26;;;;;;;7.78;2.70;;;21.30;99.90;;;;;;4994318;28;20033;-79
2021/09/05 12:25:52;;;;;;;6.05;2.60;;;21.10;99.90;;;;;;4994382;28;20092;-81
2021/09/05 12:28:27;;;;;;;5.65;2.28;;;20.90;99.90;;;;;;5012132;28;20402;-79
2021/09/05 12:31:03;;;;;;;6.55;2.28;;;20.60;99.90;;;;;;4994592;28;20026;-79
2021/09/05 12:33:29;;;;;;;5.90;2.40;;;20.20;99.90;;;;;;5011693;28;20128;-80
2021/09/05 12:36:18;;;;;;;7.25;2.50;;;20.20;99.90;;;;;;4994095;28;20132;-80
2021/09/05 12:38:55;;;;;;;9.75;3.13;;;20.10;99.90;;;;;;4994085;28;20509;-81
2021/09/05 12:41:27;;;;;;;6.72;1.98;;;20.10;99.90;;;;;;4994483;28;20049;-79
2021/09/05 12:43:58;;;;;;;9.20;3.13;;;20.20;99.90;;;;;;4993939;28;20486;-80
2021/09/05 12:46:39;;;;;;;6.40;2.55;;;20.00;99.90;;;;;;5011690;28;20148;-80
2021/09/05 12:49:14;;;;;;;7.55;2.30;;;19.90;99.90;;;;;;4994612;28;20080;-79
2021/09/05 12:51:55;;;;;;;7.00;2.63;;;19.70;99.90;;;;;;5012013;28;20076;-81